createdAt,value
2022-09-24T00:00:12.064Z,1009.49
2022-09-24T00:01:15.993Z,1009.54
2022-09-24T00:02:12.125Z,1009.53
2022-09-24T00:03:12.102Z,1009.48
2022-09-24T00:04:12.471Z,1009.53
2022-09-24T00:05:12.049Z,1009.49
2022-09-24T00:06:12.093Z,1009.52
2022-09-24T00:07:12.119Z,1009.47
2022-09-24T00:08:12.127Z,1009.48
2022-09-24T00:09:12.070Z,1009.44
2022-09-24T00:10:12.060Z,1009.44
2022-09-24T00:11:12.094Z,1009.46
2022-09-24T00:12:12.134Z,1009.47
2022-09-24T00:13:12.146Z,1009.48
2022-09-24T00:14:12.107Z,1009.47
2022-09-24T00:15:12.064Z,1009.39
2022-09-24T00:16:12.199Z,1009.49
2022-09-24T00:17:12.144Z,1009.44
2022-09-24T00:18:12.131Z,1009.44
2022-09-24T00:19:12.101Z,1009.47
2022-09-24T00:20:12.066Z,1009.44
2022-09-24T00:21:12.069Z,1009.45
2022-09-24T00:22:12.070Z,1009.48
2022-09-24T00:23:12.098Z,1009.49
2022-09-24T00:24:12.109Z,1009.50
2022-09-24T00:25:12.098Z,1009.49
2022-09-24T00:26:12.065Z,1009.51
2022-09-24T00:27:12.051Z,1009.48
2022-09-24T00:28:12.072Z,1009.50
2022-09-24T00:29:12.066Z,1009.43
2022-09-24T00:30:12.082Z,1009.43
2022-09-24T00:31:12.116Z,1009.41
2022-09-24T00:32:12.070Z,1009.40
2022-09-24T00:33:12.045Z,1009.37
2022-09-24T00:34:12.110Z,1009.36
2022-09-24T00:35:12.088Z,1009.34
2022-09-24T00:36:12.066Z,1009.35
2022-09-24T00:37:12.133Z,1009.31
2022-09-24T00:38:12.066Z,1009.35
2022-09-24T00:39:12.058Z,1009.35
2022-09-24T00:40:12.111Z,1009.31
2022-09-24T00:41:12.085Z,1009.32
2022-09-24T00:42:12.055Z,1009.32
2022-09-24T00:43:12.045Z,1009.31
2022-09-24T00:44:12.058Z,1009.27
2022-09-24T00:45:12.048Z,1009.26
2022-09-24T00:46:12.093Z,1009.27
2022-09-24T00:47:12.068Z,1009.30
2022-09-24T00:48:12.052Z,1009.27
2022-09-24T00:49:12.050Z,1009.25
2022-09-24T00:50:12.066Z,1009.25
2022-09-24T00:51:12.055Z,1009.23
2022-09-24T00:52:12.079Z,1009.23
2022-09-24T00:53:12.070Z,1009.24
2022-09-24T00:54:12.053Z,1009.20
2022-09-24T00:55:12.127Z,1009.18
2022-09-24T00:56:12.065Z,1009.22
2022-09-24T00:57:12.109Z,1009.17
2022-09-24T00:58:12.045Z,1009.20
2022-09-24T00:59:12.042Z,1009.19
2022-09-24T01:00:12.057Z,1009.22
2022-09-24T01:01:12.160Z,1009.18
2022-09-24T01:02:12.198Z,1009.23
2022-09-24T01:03:12.065Z,1009.18
2022-09-24T01:04:12.057Z,1009.14
2022-09-24T01:05:12.058Z,1009.12
2022-09-24T01:06:12.060Z,1009.13
2022-09-24T01:07:12.075Z,1009.11
2022-09-24T01:08:12.051Z,1009.13
2022-09-24T01:09:12.044Z,1009.12
2022-09-24T01:10:12.054Z,1009.10
2022-09-24T01:11:12.060Z,1009.08
2022-09-24T01:12:12.042Z,1009.12
2022-09-24T01:13:12.059Z,1009.00
2022-09-24T01:14:12.049Z,1009.09
2022-09-24T01:15:12.054Z,1009.04
2022-09-24T01:16:12.112Z,1009.02
2022-09-24T01:17:12.040Z,1009.02
2022-09-24T01:18:12.048Z,1008.99
2022-09-24T01:19:12.072Z,1009.00
2022-09-24T01:20:12.056Z,1008.99
2022-09-24T01:21:12.054Z,1009.00
2022-09-24T01:22:12.046Z,1008.99
2022-09-24T01:23:12.055Z,1008.97
2022-09-24T01:24:12.036Z,1009.02
2022-09-24T01:25:12.058Z,1008.97
2022-09-24T01:26:12.047Z,1008.96
2022-09-24T01:27:12.040Z,1008.96
2022-09-24T01:28:12.044Z,1008.93
2022-09-24T01:29:12.048Z,1008.96
2022-09-24T01:30:12.046Z,1008.94
2022-09-24T01:31:12.073Z,1008.90
2022-09-24T01:32:12.046Z,1008.92
2022-09-24T01:33:12.046Z,1008.89
2022-09-24T01:34:12.047Z,1008.90
2022-09-24T01:35:12.034Z,1008.83
2022-09-24T01:36:12.062Z,1008.86
2022-09-24T01:37:12.034Z,1008.85
2022-09-24T01:38:12.037Z,1008.84
2022-09-24T01:39:12.034Z,1008.86
2022-09-24T01:40:12.097Z,1008.82
2022-09-24T01:41:12.064Z,1008.81
2022-09-24T01:42:12.042Z,1008.82
2022-09-24T01:43:12.050Z,1008.78
2022-09-24T01:44:12.036Z,1008.75
2022-09-24T01:45:12.054Z,1008.80
2022-09-24T01:46:12.086Z,1008.80
2022-09-24T01:47:12.047Z,1008.75
2022-09-24T01:48:12.042Z,1008.76
2022-09-24T01:49:12.048Z,1008.75
2022-09-24T01:50:12.029Z,1008.74
2022-09-24T01:51:12.039Z,1008.72
2022-09-24T01:52:12.048Z,1008.71
2022-09-24T01:53:12.028Z,1008.74
2022-09-24T01:54:12.042Z,1008.71
2022-09-24T01:55:12.064Z,1008.72
2022-09-24T01:56:12.034Z,1008.69
2022-09-24T01:57:12.041Z,1008.68
2022-09-24T01:58:12.051Z,1008.70
2022-09-24T01:59:12.031Z,1008.70
2022-09-24T02:00:12.025Z,1008.69
2022-09-24T02:01:12.138Z,1008.68
2022-09-24T02:02:12.080Z,1008.68
2022-09-24T02:03:12.076Z,1008.67
2022-09-24T02:04:12.049Z,1008.67
2022-09-24T02:05:12.036Z,1008.68
2022-09-24T02:06:12.022Z,1008.68
2022-09-24T02:07:12.034Z,1008.66
2022-09-24T02:08:12.038Z,1008.62
2022-09-24T02:09:12.027Z,1008.64
2022-09-24T02:10:12.039Z,1008.67
2022-09-24T02:11:12.035Z,1008.64
2022-09-24T02:12:12.036Z,1008.65
2022-09-24T02:13:12.044Z,1008.64
2022-09-24T02:14:12.029Z,1008.65
2022-09-24T02:15:12.029Z,1008.62
2022-09-24T02:16:12.107Z,1008.60
2022-09-24T02:17:12.044Z,1008.59
2022-09-24T02:18:12.032Z,1008.64
2022-09-24T02:19:12.051Z,1008.61
2022-09-24T02:20:12.021Z,1008.56
2022-09-24T02:21:12.032Z,1008.56
2022-09-24T02:22:12.033Z,1008.55
2022-09-24T02:23:12.029Z,1008.56
2022-09-24T02:24:12.044Z,1008.56
2022-09-24T02:25:12.042Z,1008.53
2022-09-24T02:26:12.031Z,1008.44
2022-09-24T02:27:12.057Z,1008.45
2022-09-24T02:28:12.026Z,1008.49
2022-09-24T02:29:12.048Z,1008.47
2022-09-24T02:30:12.061Z,1008.48
2022-09-24T02:31:12.094Z,1008.46
2022-09-24T02:32:12.044Z,1008.43
2022-09-24T02:33:12.044Z,1008.46
2022-09-24T02:34:12.015Z,1008.46
2022-09-24T02:35:12.030Z,1008.43
2022-09-24T02:36:12.028Z,1008.43
2022-09-24T02:37:12.027Z,1008.42
2022-09-24T02:38:12.052Z,1008.46
2022-09-24T02:39:12.023Z,1008.40
2022-09-24T02:40:12.059Z,1008.44
2022-09-24T02:41:12.030Z,1008.45
2022-09-24T02:42:12.037Z,1008.45
2022-09-24T02:43:12.030Z,1008.59
2022-09-24T02:44:12.028Z,1008.57
2022-09-24T02:45:12.020Z,1008.49
2022-09-24T02:46:12.086Z,1008.44
2022-09-24T02:47:12.015Z,1008.45
2022-09-24T02:48:12.050Z,1008.47
2022-09-24T02:49:12.025Z,1008.53
2022-09-24T02:50:12.008Z,1008.49
2022-09-24T02:51:12.018Z,1008.54
2022-09-24T02:52:12.032Z,1008.54
2022-09-24T02:53:12.014Z,1008.52
2022-09-24T02:54:12.036Z,1008.49
2022-09-24T02:55:12.027Z,1008.50
2022-09-24T02:56:12.005Z,1008.49
2022-09-24T02:57:12.017Z,1008.49
2022-09-24T02:58:12.017Z,1008.47
2022-09-24T02:59:12.015Z,1008.46
2022-09-24T03:00:12.035Z,1008.43
2022-09-24T03:01:12.031Z,1008.48
2022-09-24T03:02:12.107Z,1008.50
2022-09-24T03:03:12.152Z,1008.47
2022-09-24T03:04:12.028Z,1008.50
2022-09-24T03:05:12.025Z,1008.49
2022-09-24T03:06:12.032Z,1008.47
2022-09-24T03:07:12.018Z,1008.43
2022-09-24T03:08:12.010Z,1008.41
2022-09-24T03:09:12.048Z,1008.43
2022-09-24T03:10:11.999Z,1008.47
2022-09-24T03:11:16.364Z,1008.49
2022-09-24T03:12:12.009Z,1008.47
2022-09-24T03:13:12.013Z,1008.51
2022-09-24T03:14:12.116Z,1008.50
2022-09-24T03:15:12.031Z,1008.54
2022-09-24T03:16:12.072Z,1008.46
2022-09-24T03:17:12.011Z,1008.50
2022-09-24T03:18:12.010Z,1008.46
2022-09-24T03:19:12.008Z,1008.46
2022-09-24T03:20:12.023Z,1008.41
2022-09-24T03:21:12.002Z,1008.40
2022-09-24T03:22:11.999Z,1008.36
2022-09-24T03:23:12.005Z,1008.41
2022-09-24T03:24:12.011Z,1008.41
2022-09-24T03:25:12.023Z,1008.34
2022-09-24T03:26:12.007Z,1008.33
2022-09-24T03:27:12.012Z,1008.35
2022-09-24T03:28:12.018Z,1008.36
2022-09-24T03:29:12.030Z,1008.34
2022-09-24T03:30:12.001Z,1008.35
2022-09-24T03:31:12.118Z,1008.33
2022-09-24T03:32:12.002Z,1008.32
2022-09-24T03:33:12.033Z,1008.29
2022-09-24T03:34:12.064Z,1008.28
2022-09-24T03:35:12.037Z,1008.26
2022-09-24T03:36:12.010Z,1008.25
2022-09-24T03:37:12.021Z,1008.24
2022-09-24T03:38:12.017Z,1008.24
2022-09-24T03:39:12.026Z,1008.28
2022-09-24T03:40:12.033Z,1008.26
2022-09-24T03:41:12.009Z,1008.20
2022-09-24T03:42:12.013Z,1008.25
2022-09-24T03:43:12.023Z,1008.21
2022-09-24T03:44:12.029Z,1008.25
2022-09-24T03:45:12.003Z,1008.22
2022-09-24T03:46:12.034Z,1008.24
2022-09-24T03:47:12.015Z,1008.22
2022-09-24T03:48:12.025Z,1008.20
2022-09-24T03:49:12.005Z,1008.20
2022-09-24T03:50:11.999Z,1008.21
2022-09-24T03:51:12.078Z,1008.20
2022-09-24T03:52:11.999Z,1008.14
2022-09-24T03:53:12.000Z,1008.18
2022-09-24T03:54:12.016Z,1008.17
2022-09-24T03:55:12.008Z,1008.16
2022-09-24T03:56:12.005Z,1008.20
2022-09-24T03:57:12.009Z,1008.15
2022-09-24T03:58:11.994Z,1008.17
2022-09-24T03:59:12.001Z,1008.10
2022-09-24T04:00:12.010Z,1008.11
2022-09-24T04:01:12.006Z,1008.17
2022-09-24T04:02:12.054Z,1008.13
2022-09-24T04:03:12.075Z,1008.13
2022-09-24T04:04:11.995Z,1008.15
2022-09-24T04:05:11.999Z,1008.14
2022-09-24T04:06:11.996Z,1008.12
2022-09-24T04:07:12.014Z,1008.15
2022-09-24T04:08:11.991Z,1008.10
2022-09-24T04:09:12.001Z,1008.15
2022-09-24T04:10:11.996Z,1008.08
2022-09-24T04:11:11.983Z,1008.12
2022-09-24T04:12:11.994Z,1008.08
2022-09-24T04:13:12.016Z,1008.10
2022-09-24T04:14:12.056Z,1008.04
2022-09-24T04:15:12.007Z,1008.08
2022-09-24T04:16:12.072Z,1008.05
2022-09-24T04:17:12.006Z,1008.03
2022-09-24T04:18:11.998Z,1008.01
2022-09-24T04:19:11.991Z,1008.01
2022-09-24T04:20:11.989Z,1008.00
2022-09-24T04:21:11.996Z,1008.01
2022-09-24T04:22:11.986Z,1008.05
2022-09-24T04:23:11.995Z,1008.05
2022-09-24T04:24:11.993Z,1008.00
2022-09-24T04:25:14.824Z,1008.05
2022-09-24T04:26:11.980Z,1008.03
2022-09-24T04:27:11.979Z,1008.05
2022-09-24T04:28:12.034Z,1008.11
2022-09-24T04:29:11.982Z,1008.12
2022-09-24T04:30:11.979Z,1008.10
2022-09-24T04:31:12.079Z,1008.10
2022-09-24T04:32:11.983Z,1008.08
2022-09-24T04:33:11.997Z,1008.08
2022-09-24T04:34:11.997Z,1008.06
2022-09-24T04:35:19.834Z,1008.10
2022-09-24T04:36:11.968Z,1008.09
2022-09-24T04:37:11.985Z,1008.09
2022-09-24T04:38:11.972Z,1008.11
2022-09-24T04:39:11.987Z,1008.12
2022-09-24T04:40:11.994Z,1008.10
2022-09-24T04:41:11.972Z,1008.07
2022-09-24T04:42:11.965Z,1008.05
2022-09-24T04:43:11.995Z,1008.10
2022-09-24T04:44:11.976Z,1008.06
2022-09-24T04:45:11.980Z,1007.99
2022-09-24T04:46:12.030Z,1008.02
2022-09-24T04:47:11.977Z,1008.02
2022-09-24T04:48:11.978Z,1008.02
2022-09-24T04:49:11.976Z,1008.01
2022-09-24T04:50:11.964Z,1007.99
2022-09-24T04:51:11.969Z,1008.00
2022-09-24T04:52:11.963Z,1008.06
2022-09-24T04:53:11.983Z,1008.00
2022-09-24T04:54:11.977Z,1008.03
2022-09-24T04:55:11.979Z,1008.06
2022-09-24T04:56:12.066Z,1008.11
2022-09-24T04:57:11.974Z,1008.06
2022-09-24T04:58:11.994Z,1008.09
2022-09-24T04:59:11.962Z,1008.06
2022-09-24T05:00:11.984Z,1008.11
2022-09-24T05:01:11.960Z,1008.10
2022-09-24T05:02:12.067Z,1008.15
2022-09-24T05:03:12.018Z,1008.13
2022-09-24T05:04:11.977Z,1008.11
2022-09-24T05:05:11.990Z,1008.13
2022-09-24T05:06:11.967Z,1008.17
2022-09-24T05:07:11.977Z,1008.13
2022-09-24T05:08:11.972Z,1008.12
2022-09-24T05:09:12.865Z,1008.12
2022-09-24T05:10:11.957Z,1008.14
2022-09-24T05:11:11.983Z,1008.12
2022-09-24T05:12:11.962Z,1008.07
2022-09-24T05:13:11.992Z,1008.12
2022-09-24T05:14:11.972Z,1008.10
2022-09-24T05:15:11.979Z,1008.11
2022-09-24T05:16:12.012Z,1008.13
2022-09-24T05:17:11.962Z,1008.11
2022-09-24T05:18:12.002Z,1008.12
2022-09-24T05:19:12.022Z,1008.13
2022-09-24T05:20:11.974Z,1008.10
2022-09-24T05:21:11.957Z,1008.13
2022-09-24T05:22:11.948Z,1008.18
2022-09-24T05:23:11.979Z,1008.17
2022-09-24T05:24:11.951Z,1008.19
2022-09-24T05:25:11.969Z,1008.17
2022-09-24T05:26:11.956Z,1008.16
2022-09-24T05:27:11.950Z,1008.10
2022-09-24T05:28:11.974Z,1008.17
2022-09-24T05:29:11.968Z,1008.13
2022-09-24T05:30:11.947Z,1008.11
2022-09-24T05:31:11.977Z,1008.11
2022-09-24T05:32:11.948Z,1008.08
2022-09-24T05:33:11.954Z,1008.11
2022-09-24T05:34:11.952Z,1008.14
2022-09-24T05:35:11.966Z,1008.08
2022-09-24T05:36:11.957Z,1008.10
2022-09-24T05:37:11.946Z,1008.08
2022-09-24T05:38:11.959Z,1008.08
2022-09-24T05:39:12.069Z,1008.12
2022-09-24T05:40:12.010Z,1008.11
2022-09-24T05:41:11.957Z,1008.11
2022-09-24T05:42:11.989Z,1008.09
2022-09-24T05:43:11.961Z,1008.08
2022-09-24T05:44:11.969Z,1008.13
2022-09-24T05:45:11.943Z,1008.08
2022-09-24T05:46:11.980Z,1008.09
2022-09-24T05:47:11.943Z,1008.09
2022-09-24T05:48:11.952Z,1008.09
2022-09-24T05:49:12.002Z,1008.09
2022-09-24T05:50:11.984Z,1008.10
2022-09-24T05:51:11.940Z,1008.15
2022-09-24T05:52:11.953Z,1008.17
2022-09-24T05:53:11.946Z,1008.14
2022-09-24T05:54:11.939Z,1008.17
2022-09-24T05:55:11.951Z,1008.22
2022-09-24T05:56:11.975Z,1008.21
2022-09-24T05:57:11.945Z,1008.21
2022-09-24T05:58:11.946Z,1008.25
2022-09-24T05:59:12.088Z,1008.21
2022-09-24T06:00:11.948Z,1008.22
2022-09-24T06:01:11.952Z,1008.17
2022-09-24T06:02:12.054Z,1008.21
2022-09-24T06:03:12.022Z,1008.27
2022-09-24T06:04:11.938Z,1008.26
2022-09-24T06:05:11.945Z,1008.24
2022-09-24T06:06:11.955Z,1008.27
2022-09-24T06:07:11.955Z,1008.29
2022-09-24T06:08:11.953Z,1008.26
2022-09-24T06:09:12.012Z,1008.27
2022-09-24T06:10:11.970Z,1008.27
2022-09-24T06:11:11.948Z,1008.28
2022-09-24T06:12:11.940Z,1008.26
2022-09-24T06:13:11.940Z,1008.27
2022-09-24T06:14:11.948Z,1008.26
2022-09-24T06:15:11.952Z,1008.27
2022-09-24T06:16:12.031Z,1008.28
2022-09-24T06:17:11.927Z,1008.25
2022-09-24T06:18:11.964Z,1008.29
2022-09-24T06:19:12.073Z,1008.30
2022-09-24T06:20:11.942Z,1008.30
2022-09-24T06:21:11.939Z,1008.21
2022-09-24T06:22:11.958Z,1008.26
2022-09-24T06:23:11.960Z,1008.29
2022-09-24T06:24:11.941Z,1008.33
2022-09-24T06:25:11.943Z,1008.31
2022-09-24T06:26:11.952Z,1008.30
2022-09-24T06:27:11.926Z,1008.30
2022-09-24T06:28:11.932Z,1008.34
2022-09-24T06:29:12.006Z,1008.32
2022-09-24T06:30:11.951Z,1008.25
2022-09-24T06:31:12.034Z,1008.30
2022-09-24T06:32:11.936Z,1008.27
2022-09-24T06:33:11.947Z,1008.28
2022-09-24T06:34:11.958Z,1008.29
2022-09-24T06:35:11.956Z,1008.26
2022-09-24T06:36:11.926Z,1008.30
2022-09-24T06:37:11.958Z,1008.28
2022-09-24T06:38:11.941Z,1008.28
2022-09-24T06:39:12.009Z,1008.31
2022-09-24T06:40:11.970Z,1008.30
2022-09-24T06:41:11.941Z,1008.31
2022-09-24T06:42:11.945Z,1008.35
2022-09-24T06:43:11.971Z,1008.38
2022-09-24T06:44:11.937Z,1008.35
2022-09-24T06:45:11.923Z,1008.37
2022-09-24T06:46:12.010Z,1008.40
2022-09-24T06:47:12.039Z,1008.38
2022-09-24T06:48:11.946Z,1008.37
2022-09-24T06:49:11.968Z,1008.36
2022-09-24T06:50:11.941Z,1008.36
2022-09-24T06:51:11.939Z,1008.38
2022-09-24T06:52:11.964Z,1008.37
2022-09-24T06:53:11.944Z,1008.36
2022-09-24T06:54:11.935Z,1008.31
2022-09-24T06:55:11.936Z,1008.28
2022-09-24T06:56:11.935Z,1008.28
2022-09-24T06:57:11.950Z,1008.26
2022-09-24T06:58:11.950Z,1008.30
2022-09-24T06:59:12.073Z,1008.30
2022-09-24T07:00:11.939Z,1008.33
2022-09-24T07:01:11.972Z,1008.34
2022-09-24T07:02:11.991Z,1008.35
2022-09-24T07:03:11.966Z,1008.37
2022-09-24T07:04:12.412Z,1008.40
2022-09-24T07:05:11.936Z,1008.39
2022-09-24T07:06:11.934Z,1008.38
2022-09-24T07:07:19.905Z,1008.40
2022-09-24T07:08:19.973Z,1008.44
2022-09-24T07:09:11.932Z,1008.41
2022-09-24T07:10:11.941Z,1008.43
2022-09-24T07:11:11.922Z,1008.45
2022-09-24T07:12:11.944Z,1008.47
2022-09-24T07:13:11.947Z,1008.45
2022-09-24T07:14:11.932Z,1008.48
2022-09-24T07:15:11.927Z,1008.49
2022-09-24T07:16:12.017Z,1008.48
2022-09-24T07:17:11.943Z,1008.47
2022-09-24T07:18:11.917Z,1008.49
2022-09-24T07:19:11.995Z,1008.47
2022-09-24T07:20:11.934Z,1008.46
2022-09-24T07:21:11.944Z,1008.48
2022-09-24T07:22:11.918Z,1008.49
2022-09-24T07:23:12.012Z,1008.48
2022-09-24T07:24:11.949Z,1008.50
2022-09-24T07:25:12.071Z,1008.48
2022-09-24T07:26:11.928Z,1008.45
2022-09-24T07:27:11.929Z,1008.47
2022-09-24T07:28:11.919Z,1008.49
2022-09-24T07:29:12.049Z,1008.51
2022-09-24T07:30:11.940Z,1008.51
2022-09-24T07:31:12.012Z,1008.52
2022-09-24T07:32:11.955Z,1008.52
2022-09-24T07:33:11.934Z,1008.53
2022-09-24T07:34:12.040Z,1008.53
2022-09-24T07:35:11.950Z,1008.49
2022-09-24T07:36:11.950Z,1008.50
2022-09-24T07:37:11.919Z,1008.50
2022-09-24T07:38:11.921Z,1008.48
2022-09-24T07:39:11.971Z,1008.46
2022-09-24T07:40:11.990Z,1008.50
2022-09-24T07:41:11.922Z,1008.50
2022-09-24T07:42:11.939Z,1008.52
2022-09-24T07:43:11.919Z,1008.51
2022-09-24T07:44:11.991Z,1008.51
2022-09-24T07:45:11.932Z,1008.51
2022-09-24T07:46:11.944Z,1008.54
2022-09-24T07:47:15.375Z,1008.56
2022-09-24T07:48:11.934Z,1008.57
2022-09-24T07:49:11.940Z,1008.55
2022-09-24T07:50:11.912Z,1008.60
2022-09-24T07:51:11.928Z,1008.55
2022-09-24T07:52:11.915Z,1008.57
2022-09-24T07:53:11.968Z,1008.56
2022-09-24T07:54:16.894Z,1008.60
2022-09-24T07:55:11.924Z,1008.60
2022-09-24T07:56:11.912Z,1008.64
2022-09-24T07:57:12.041Z,1008.63
2022-09-24T07:58:11.936Z,1008.66
2022-09-24T07:59:11.935Z,1008.67
2022-09-24T08:00:11.949Z,1008.71
2022-09-24T08:01:12.079Z,1008.73
2022-09-24T08:02:12.079Z,1008.72
2022-09-24T08:03:11.936Z,1008.69
2022-09-24T08:04:12.167Z,1008.72
2022-09-24T08:05:11.915Z,1008.69
2022-09-24T08:06:11.956Z,1008.71
2022-09-24T08:07:11.919Z,1008.74
2022-09-24T08:08:11.916Z,1008.69
2022-09-24T08:09:11.920Z,1008.67
2022-09-24T08:10:11.911Z,1008.70
2022-09-24T08:11:11.937Z,1008.69
2022-09-24T08:12:12.475Z,1008.76
2022-09-24T08:13:11.933Z,1008.69
2022-09-24T08:14:11.976Z,1008.70
2022-09-24T08:15:12.551Z,1008.67
2022-09-24T08:16:11.990Z,1008.69
2022-09-24T08:17:11.936Z,1008.68
2022-09-24T08:18:11.937Z,1008.70
2022-09-24T08:19:11.948Z,1008.64
2022-09-24T08:20:11.916Z,1008.67
2022-09-24T08:21:12.028Z,1008.68
2022-09-24T08:22:11.934Z,1008.68
2022-09-24T08:23:11.936Z,1008.68
2022-09-24T08:24:12.026Z,1008.66
2022-09-24T08:25:11.944Z,1008.68
2022-09-24T08:26:11.916Z,1008.66
2022-09-24T08:27:17.010Z,1008.65
2022-09-24T08:28:11.927Z,1008.68
2022-09-24T08:29:11.927Z,1008.68
2022-09-24T08:30:12.005Z,1008.69
2022-09-24T08:31:12.049Z,1008.67
2022-09-24T08:32:11.937Z,1008.70
2022-09-24T08:33:11.950Z,1008.71
2022-09-24T08:34:12.060Z,1008.71
2022-09-24T08:35:11.927Z,1008.72
2022-09-24T08:36:11.933Z,1008.73
2022-09-24T08:37:11.925Z,1008.77
2022-09-24T08:38:11.931Z,1008.74
2022-09-24T08:39:11.937Z,1008.76
2022-09-24T08:40:11.968Z,1008.77
2022-09-24T08:41:11.928Z,1008.76
2022-09-24T08:42:11.925Z,1008.77
2022-09-24T08:43:11.938Z,1008.77
2022-09-24T08:44:12.023Z,1008.75
2022-09-24T08:45:11.929Z,1008.74
2022-09-24T08:46:11.956Z,1008.78
2022-09-24T08:47:11.939Z,1008.75
2022-09-24T08:48:11.944Z,1008.71
2022-09-24T08:49:11.977Z,1008.75
2022-09-24T08:50:11.946Z,1008.75
2022-09-24T08:51:11.941Z,1008.72
2022-09-24T08:52:11.980Z,1008.74
2022-09-24T08:53:11.934Z,1008.75
2022-09-24T08:54:12.005Z,1008.74
2022-09-24T08:55:12.033Z,1008.68
2022-09-24T08:56:11.944Z,1008.72
2022-09-24T08:57:11.955Z,1008.71
2022-09-24T08:58:11.939Z,1008.68
2022-09-24T08:59:11.944Z,1008.71
2022-09-24T09:00:11.969Z,1008.72
2022-09-24T09:01:12.006Z,1008.70
2022-09-24T09:02:12.052Z,1008.72
2022-09-24T09:03:11.956Z,1008.72
2022-09-24T09:04:12.025Z,1008.72
2022-09-24T09:05:11.961Z,1008.69
2022-09-24T09:06:11.975Z,1008.72
2022-09-24T09:07:11.967Z,1008.71
2022-09-24T09:08:33.863Z,1008.70
2022-09-24T09:09:11.987Z,1008.71
2022-09-24T09:10:11.965Z,1008.70
2022-09-24T09:11:12.010Z,1008.67
2022-09-24T09:12:11.968Z,1008.67
2022-09-24T09:13:11.967Z,1008.69
2022-09-24T09:14:11.979Z,1008.68
2022-09-24T09:15:12.056Z,1008.70
2022-09-24T09:16:12.105Z,1008.68
2022-09-24T09:17:11.988Z,1008.70
2022-09-24T09:18:11.988Z,1008.66
2022-09-24T09:19:12.015Z,1008.68
2022-09-24T09:20:12.012Z,1008.66
2022-09-24T09:21:11.983Z,1008.66
2022-09-24T09:22:12.004Z,1008.63
2022-09-24T09:23:12.005Z,1008.64
2022-09-24T09:24:11.991Z,1008.67
2022-09-24T09:25:12.012Z,1008.66
2022-09-24T09:26:11.987Z,1008.69
2022-09-24T09:27:11.984Z,1008.66
2022-09-24T09:28:11.996Z,1008.71
2022-09-24T09:29:12.005Z,1008.66
2022-09-24T09:30:16.430Z,1008.70
2022-09-24T09:31:12.045Z,1008.64
2022-09-24T09:32:11.995Z,1008.66
2022-09-24T09:33:12.039Z,1008.68
2022-09-24T09:34:12.079Z,1008.70
2022-09-24T09:35:12.020Z,1008.70
2022-09-24T09:36:12.019Z,1008.69
2022-09-24T09:37:12.032Z,1008.70
2022-09-24T09:38:12.045Z,1008.67
2022-09-24T09:39:12.094Z,1008.68
2022-09-24T09:40:12.096Z,1008.67
2022-09-24T09:41:12.022Z,1008.68
2022-09-24T09:42:12.027Z,1008.66
2022-09-24T09:43:12.048Z,1008.67
2022-09-24T09:44:12.088Z,1008.66
2022-09-24T09:45:12.017Z,1008.64
2022-09-24T09:46:12.192Z,1008.67
2022-09-24T09:47:12.030Z,1008.66
2022-09-24T09:48:12.047Z,1008.67
2022-09-24T09:49:12.064Z,1008.65
2022-09-24T09:50:12.039Z,1008.64
2022-09-24T09:51:12.039Z,1008.68
2022-09-24T09:52:12.056Z,1008.66
2022-09-24T09:53:12.027Z,1008.65
2022-09-24T09:54:12.122Z,1008.65
2022-09-24T09:55:12.035Z,1008.64
2022-09-24T09:56:12.057Z,1008.66
2022-09-24T09:57:12.042Z,1008.66
2022-09-24T09:58:12.072Z,1008.60
2022-09-24T09:59:12.112Z,1008.65
2022-09-24T10:00:12.052Z,1008.71
2022-09-24T10:01:12.067Z,1008.65
2022-09-24T10:02:12.154Z,1008.65
2022-09-24T10:03:12.152Z,1008.62
2022-09-24T10:04:12.141Z,1008.62
2022-09-24T10:05:17.128Z,1008.68
2022-09-24T10:06:12.056Z,1008.67
2022-09-24T10:07:12.157Z,1008.65
2022-09-24T10:08:12.051Z,1008.64
2022-09-24T10:09:12.057Z,1008.67
2022-09-24T10:10:12.085Z,1008.63
2022-09-24T10:11:12.049Z,1008.66
2022-09-24T10:12:12.088Z,1008.65
2022-09-24T10:13:12.073Z,1008.67
2022-09-24T10:14:12.175Z,1008.69
2022-09-24T10:15:12.069Z,1008.69
2022-09-24T10:16:12.145Z,1008.67
2022-09-24T10:17:12.076Z,1008.70
2022-09-24T10:18:12.060Z,1008.71
2022-09-24T10:19:13.047Z,1008.69
2022-09-24T10:20:12.114Z,1008.70
2022-09-24T10:21:12.102Z,1008.65
2022-09-24T10:22:12.099Z,1008.67
2022-09-24T10:23:12.078Z,1008.65
2022-09-24T10:24:12.202Z,1008.65
2022-09-24T10:25:12.060Z,1008.65
2022-09-24T10:26:12.075Z,1008.57
2022-09-24T10:27:12.080Z,1008.61
2022-09-24T10:28:12.075Z,1008.61
2022-09-24T10:29:12.087Z,1008.61
2022-09-24T10:30:12.131Z,1008.61
2022-09-24T10:31:12.171Z,1008.64
2022-09-24T10:32:12.104Z,1008.62
2022-09-24T10:33:12.097Z,1008.61
2022-09-24T10:34:12.104Z,1008.60
2022-09-24T10:35:12.080Z,1008.60
2022-09-24T10:36:12.160Z,1008.62
2022-09-24T10:37:12.093Z,1008.62
2022-09-24T10:38:12.136Z,1008.63
2022-09-24T10:39:12.081Z,1008.64
2022-09-24T10:40:12.186Z,1008.65
2022-09-24T10:41:12.091Z,1008.67
2022-09-24T10:42:12.078Z,1008.69
2022-09-24T10:43:12.124Z,1008.68
2022-09-24T10:44:12.155Z,1008.67
2022-09-24T10:45:12.088Z,1008.70
2022-09-24T10:46:12.123Z,1008.69
2022-09-24T10:47:12.098Z,1008.65
2022-09-24T10:48:12.106Z,1008.70
2022-09-24T10:49:12.137Z,1008.73
2022-09-24T10:50:12.170Z,1008.70
2022-09-24T10:51:12.086Z,1008.71
2022-09-24T10:52:12.135Z,1008.71
2022-09-24T10:53:12.104Z,1008.70
2022-09-24T10:54:12.170Z,1008.65
2022-09-24T10:55:12.097Z,1008.66
2022-09-24T10:56:12.097Z,1008.66
2022-09-24T10:57:12.096Z,1008.67
2022-09-24T10:58:12.100Z,1008.67
2022-09-24T10:59:12.144Z,1008.67
2022-09-24T11:00:12.245Z,1008.67
2022-09-24T11:01:12.114Z,1008.65
2022-09-24T11:02:12.182Z,1008.67
2022-09-24T11:03:12.167Z,1008.65
2022-09-24T11:04:12.203Z,1008.67
2022-09-24T11:05:12.124Z,1008.72
2022-09-24T11:06:12.118Z,1008.68
2022-09-24T11:07:12.134Z,1008.71
2022-09-24T11:08:12.167Z,1008.65
2022-09-24T11:09:12.127Z,1008.68
2022-09-24T11:10:12.154Z,1008.67
2022-09-24T11:11:12.171Z,1008.63
2022-09-24T11:12:12.136Z,1008.69
2022-09-24T11:13:12.147Z,1008.66
2022-09-24T11:14:12.212Z,1008.61
2022-09-24T11:15:12.131Z,1008.66
2022-09-24T11:16:12.213Z,1008.64
2022-09-24T11:17:12.142Z,1008.61
2022-09-24T11:18:12.149Z,1008.65
2022-09-24T11:19:12.229Z,1008.61
2022-09-24T11:20:12.245Z,1008.61
2022-09-24T11:21:12.202Z,1008.52
2022-09-24T11:22:12.170Z,1008.53
2022-09-24T11:23:12.178Z,1008.54
2022-09-24T11:24:12.256Z,1008.55
2022-09-24T11:25:12.156Z,1008.56
2022-09-24T11:26:12.163Z,1008.57
2022-09-24T11:27:12.200Z,1008.53
2022-09-24T11:28:12.167Z,1008.55
2022-09-24T11:29:12.185Z,1008.61
2022-09-24T11:30:12.309Z,1008.57
2022-09-24T11:31:12.196Z,1008.59
2022-09-24T11:32:12.182Z,1008.60
2022-09-24T11:33:12.185Z,1008.58
2022-09-24T11:34:12.185Z,1008.59
2022-09-24T11:35:12.191Z,1008.59
2022-09-24T11:36:12.169Z,1008.55
2022-09-24T11:37:12.187Z,1008.60
2022-09-24T11:38:12.183Z,1008.61
2022-09-24T11:39:12.193Z,1008.59
2022-09-24T11:40:12.326Z,1008.55
2022-09-24T11:41:12.182Z,1008.55
2022-09-24T11:42:12.190Z,1008.56
2022-09-24T11:43:12.198Z,1008.57
2022-09-24T11:44:12.236Z,1008.59
2022-09-24T11:45:12.205Z,1008.57
2022-09-24T11:46:12.333Z,1008.56
2022-09-24T11:47:12.214Z,1008.54
2022-09-24T11:48:12.270Z,1008.55
2022-09-24T11:49:12.224Z,1008.55
2022-09-24T11:50:12.214Z,1008.53
2022-09-24T11:51:12.285Z,1008.52
2022-09-24T11:52:12.226Z,1008.51
2022-09-24T11:53:12.221Z,1008.51
2022-09-24T11:54:12.266Z,1008.52
2022-09-24T11:55:12.238Z,1008.46
2022-09-24T11:56:13.386Z,1008.49
2022-09-24T11:57:12.253Z,1008.48
2022-09-24T11:58:12.255Z,1008.50
2022-09-24T11:59:12.234Z,1008.46
2022-09-24T12:00:12.234Z,1008.52
2022-09-24T12:01:12.227Z,1008.52
2022-09-24T12:02:12.282Z,1008.50
2022-09-24T12:03:12.330Z,1008.53
2022-09-24T12:04:12.322Z,1008.51
2022-09-24T12:05:12.251Z,1008.55